Time;durP1;ratioP1;P1;durP2;ratioP2;P2;SDS_P1;SDS_P2;PMS_P1;PMS_P2;Temp;Humidity;BMP_temperature;BMP_pressure;BME280_temperature;BME280_humidity;BME280_pressure;Samples;Min_cycle;Max_cycle;Signal;HPM_P1;HPM_P2
2023/08/20 00:00:07;;;;;;;7.60;5.47;;;;;;;25.92;90.59;100213.31;6217042;28;20085;-72
2023/08/20 00:03:12;;;;;;;8.32;5.50;;;;;;;25.90;90.53;100209.16;6216440;28;20053;-71
2023/08/20 00:06:13;;;;;;;7.88;5.45;;;;;;;25.90;89.91;100204.66;6337785;28;20058;-71
2023/08/20 00:09:13;;;;;;;6.82;5.00;;;;;;;25.87;90.18;100202.31;6350040;28;20051;-71
2023/08/20 00:12:14;;;;;;;8.60;5.10;;;;;;;25.90;90.02;100199.31;6351140;28;20070;-72
2023/08/20 00:15:19;;;;;;;9.80;5.00;;;;;;;25.78;90.17;100207.94;6260348;28;20429;-71
2023/08/20 00:18:20;;;;;;;7.18;5.40;;;;;;;25.58;91.83;100211.25;6222204;28;20493;-71
2023/08/20 00:21:24;;;;;;;7.63;5.40;;;;;;;25.59;92.59;100198.72;6222024;28;20053;-71
2023/08/20 00:24:25;;;;;;;7.93;5.35;;;;;;;25.54;92.07;100202.78;6222762;28;20095;-71
2023/08/20 00:27:26;;;;;;;6.80;5.53;;;;;;;25.43;93.74;100207.75;6229276;28;20447;-71
2023/08/20 00:30:26;;;;;;;7.60;5.80;;;;;;;25.47;93.07;100207.22;6321193;28;20057;-71
2023/08/20 00:33:27;;;;;;;10.07;5.40;;;;;;;25.49;92.81;100204.34;6349419;28;20056;-71
2023/08/20 00:36:28;;;;;;;7.33;5.63;;;;;;;25.46;92.49;100202.88;6252949;28;20049;-72
2023/08/20 00:39:29;;;;;;;8.93;5.03;;;;;;;25.47;91.93;100201.88;6300764;28;20062;-71
2023/08/20 00:42:30;;;;;;;7.45;5.50;;;;;;;25.47;91.83;100201.03;6220769;28;20054;-71
2023/08/20 00:45:36;;;;;;;7.50;5.27;;;;;;;25.47;90.25;100209.03;6220395;28;20046;-71
2023/08/20 00:48:39;;;;;;;8.02;5.88;;;;;;;25.44;90.66;100207.59;6221771;28;20087;-71
2023/08/20 00:51:40;;;;;;;6.50;5.38;;;;;;;25.40;89.96;100210.81;6228297;28;20058;-71
2023/08/20 00:54:41;;;;;;;6.45;5.10;;;;;;;25.41;89.32;100202.63;6221308;28;20140;-71
2023/08/20 00:57:42;;;;;;;9.82;5.22;;;;;;;25.41;88.74;100202.63;6259304;28;20044;-71
2023/08/20 01:00:43;;;;;;;5.97;4.93;;;;;;;25.41;88.33;100204.44;6347911;28;20085;-72
2023/08/20 01:03:44;;;;;;;7.35;5.20;;;;;;;25.43;87.26;100197.06;6348796;28;20048;-72
2023/08/20 01:07:02;;;;;;;6.40;5.00;;;;;;;25.40;88.32;100200.97;6348497;28;20058;-71
2023/08/20 01:10:41;;;;;;;6.57;5.00;;;;;;;25.39;86.93;100209.16;6338312;28;20040;-71
2023/08/20 01:13:42;;;;;;;5.97;4.70;;;;;;;25.33;86.93;100205.41;6317392;28;20056;-71
2023/08/20 01:16:43;;;;;;;7.33;4.83;;;;;;;25.38;87.51;100204.84;6347463;28;20077;-71
2023/08/20 01:19:47;;;;;;;6.07;4.90;;;;;;;25.28;87.51;100210.47;6340731;28;20395;-71
2023/08/20 01:22:53;;;;;;;5.45;4.47;;;;;;;25.29;86.11;100207.59;6348040;28;20063;-71
2023/08/20 01:26:28;;;;;;;6.65;4.88;;;;;;;25.39;85.32;100206.47;6349221;28;20104;-72
2023/08/20 01:29:31;;;;;;;6.50;4.95;;;;;;;25.29;85.44;100191.59;6236509;28;20102;-71
2023/08/20 01:32:33;;;;;;;6.05;4.70;;;;;;;25.32;84.76;100188.53;6220690;28;20410;-71
2023/08/20 01:35:37;;;;;;;6.30;4.97;;;;;;;25.17;85.55;100197.56;6220742;28;20042;-71
2023/08/20 01:38:38;;;;;;;5.55;4.43;;;;;;;25.19;85.10;100198.19;6227374;28;20433;-71
2023/08/20 01:41:41;;;;;;;7.40;5.10;;;;;;;25.08;86.46;100205.66;6220554;28;20058;-71
2023/08/20 01:44:44;;;;;;;7.57;5.30;;;;;;;25.08;86.17;100204.81;6221258;28;20062;-71
2023/08/20 01:47:46;;;;;;;9.80;4.97;;;;;;;25.02;86.49;100210.88;6220921;28;20149;-71
2023/08/20 01:50:46;;;;;;;6.43;5.03;;;;;;;24.93;86.31;100211.00;6195093;28;20051;-71
2023/08/20 01:53:47;;;;;;;7.73;4.90;;;;;;;24.89;86.89;100209.72;6195141;28;20284;-71
2023/08/20 01:56:48;;;;;;;7.90;5.03;;;;;;;24.91;86.01;100207.69;6218144;28;20141;-71
2023/08/20 01:59:48;;;;;;;5.87;4.20;;;;;;;24.91;86.35;100212.19;6289484;28;20130;-71
2023/08/20 02:02:52;;;;;;;8.17;4.37;;;;;;;24.91;85.54;100210.38;6348332;28;20050;-72
2023/08/20 02:05:53;;;;;;;5.43;4.45;;;;;;;24.94;85.06;100215.31;6348236;28;20558;-71
2023/08/20 02:08:54;;;;;;;5.87;4.63;;;;;;;24.85;86.54;100205.75;6339050;28;20050;-71
2023/08/20 02:11:54;;;;;;;5.17;4.27;;;;;;;24.83;85.71;100206.94;6346013;28;20051;-71
2023/08/20 02:14:58;;;;;;;6.50;5.10;;;;;;;24.87;85.49;100208.22;6346185;28;20051;-71
2023/08/20 02:17:58;;;;;;;9.40;4.72;;;;;;;24.96;85.77;100206.28;6345879;28;20050;-71
2023/08/20 02:20:59;;;;;;;6.20;4.63;;;;;;;24.91;85.46;100193.50;6262903;28;20046;-71
2023/08/20 02:24:00;;;;;;;5.53;4.60;;;;;;;24.96;85.53;100195.59;6217737;28;20144;-71
2023/08/20 02:27:01;;;;;;;8.93;4.97;;;;;;;24.99;85.53;100201.41;6217392;28;20046;-71
2023/08/20 02:30:02;;;;;;;6.70;5.07;;;;;;;25.00;85.93;100199.56;6240494;28;20051;-71
2023/08/20 02:33:06;;;;;;;8.48;4.90;;;;;;;24.95;86.25;100200.13;6344325;28;20047;-71
2023/08/20 02:36:07;;;;;;;8.23;5.00;;;;;;;24.89;85.79;100196.38;6345255;28;20044;-71
2023/08/20 02:39:07;;;;;;;6.37;4.47;;;;;;;24.87;85.83;100198.41;6346314;28;20077;-71
2023/08/20 02:42:11;;;;;;;7.40;4.73;;;;;;;24.88;86.53;100202.72;6249857;28;20049;-71
2023/08/20 02:45:14;;;;;;;5.78;4.65;;;;;;;24.82;86.08;100206.09;6216518;28;20042;-71
2023/08/20 02:48:15;;;;;;;5.75;4.55;;;;;;;24.71;86.35;100209.25;6201646;28;20085;-71
2023/08/20 02:51:16;;;;;;;9.38;5.40;;;;;;;24.72;86.94;100206.38;6344812;28;20457;-72
2023/08/20 02:54:19;;;;;;;7.50;4.67;;;;;;;24.68;87.15;100204.25;6343211;28;20051;-71
2023/08/20 02:57:21;;;;;;;6.53;4.65;;;;;;;24.53;88.02;100199.72;6346065;28;20048;-71
2023/08/20 03:00:24;;;;;;;7.35;4.95;;;;;;;24.48;88.59;100202.09;6333216;28;20047;-71
2023/08/20 03:03:27;;;;;;;7.20;4.93;;;;;;;24.47;89.09;100204.91;6218336;28;20061;-71
2023/08/20 03:06:28;;;;;;;7.05;4.72;;;;;;;24.44;88.99;100205.28;6217924;28;20099;-71
2023/08/20 03:09:29;;;;;;;8.57;5.20;;;;;;;24.50;89.02;100207.25;6223542;28;20460;-71
2023/08/20 03:12:30;;;;;;;6.30;5.40;;;;;;;24.51;89.25;100215.06;6216727;28;20050;-71
2023/08/20 03:15:31;;;;;;;7.05;5.15;;;;;;;24.49;89.21;100211.75;6216865;28;20069;-71
2023/08/20 03:18:31;;;;;;;7.97;4.85;;;;;;;24.49;89.43;100213.56;6216621;28;20137;-71
2023/08/20 03:21:32;;;;;;;10.73;5.03;;;;;;;24.37;89.72;100213.16;6223559;28;20054;-71
2023/08/20 03:24:33;;;;;;;6.87;4.93;;;;;;;24.31;90.39;100214.69;6217730;28;20136;-71
2023/08/20 03:27:34;;;;;;;8.10;5.17;;;;;;;24.26;91.18;100206.44;6200908;28;20047;-71
2023/08/20 03:30:36;;;;;;;5.40;4.73;;;;;;;24.28;91.03;100212.41;6196965;28;20062;-71
2023/08/20 03:33:37;;;;;;;7.80;4.85;;;;;;;24.22;91.44;100199.81;6264086;28;20050;-71
2023/08/20 03:36:40;;;;;;;8.47;5.13;;;;;;;24.07;92.14;100197.09;6217361;28;20405;-71
2023/08/20 03:39:43;;;;;;;7.85;5.15;;;;;;;24.09;92.64;100204.88;6222162;28;20053;-72
2023/08/20 03:42:44;;;;;;;6.40;4.85;;;;;;;24.07;92.44;100209.56;6342891;28;20044;-71
2023/08/20 03:45:49;;;;;;;6.32;5.38;;;;;;;24.05;93.51;100201.75;6343945;28;20447;-71
2023/08/20 03:48:52;;;;;;;7.22;5.45;;;;;;;24.10;93.49;100207.38;6343956;28;20066;-71
2023/08/20 03:51:53;;;;;;;8.68;5.40;;;;;;;24.09;93.50;100210.22;6337544;28;20500;-71
2023/08/20 03:54:54;;;;;;;7.67;5.43;;;;;;;24.07;93.74;100213.06;6237397;28;20057;-71
2023/08/20 03:57:54;;;;;;;7.00;5.00;;;;;;;24.06;93.51;100207.91;6202792;28;20191;-71
2023/08/20 04:00:57;;;;;;;8.63;5.33;;;;;;;24.02;94.13;100204.78;6212528;28;20419;-72
2023/08/20 04:03:58;;;;;;;8.93;5.45;;;;;;;24.13;92.86;100214.19;6216764;28;20050;-72
2023/08/20 04:06:59;;;;;;;13.63;5.87;;;;;;;24.05;93.96;100216.91;6216932;28;20050;-72
2023/08/20 04:09:59;;;;;;;8.73;5.33;;;;;;;24.04;93.59;100216.09;6211833;28;20103;-72
2023/08/20 04:13:00;;;;;;;7.50;5.50;;;;;;;24.10;93.58;100206.56;6222924;28;20046;-72
2023/08/20 04:16:01;;;;;;;6.87;5.33;;;;;;;24.12;93.47;100209.88;6211838;28;20047;-72
2023/08/20 04:19:01;;;;;;;8.63;5.90;;;;;;;24.11;93.28;100209.06;6206408;28;20057;-72
2023/08/20 04:22:02;;;;;;;8.83;5.33;;;;;;;24.11;93.89;100217.03;6222933;28;20054;-72
2023/08/20 04:25:03;;;;;;;7.73;5.00;;;;;;;24.20;93.76;100222.31;6199029;28;20410;-72
2023/08/20 04:28:04;;;;;;;8.88;5.50;;;;;;;24.22;93.30;100214.97;6215393;28;20045;-72
2023/08/20 04:31:07;;;;;;;9.80;6.03;;;;;;;24.14;94.23;100219.34;6204095;28;20080;-72
2023/08/20 04:34:08;;;;;;;8.07;5.88;;;;;;;24.08;94.42;100217.38;6272551;28;20795;-72
2023/08/20 04:37:11;;;;;;;8.27;5.77;;;;;;;24.14;94.09;100222.00;6206369;28;21362;-72
2023/08/20 04:40:12;;;;;;;8.95;5.50;;;;;;;24.21;94.00;100221.28;6199032;28;20051;-72
2023/08/20 04:43:13;;;;;;;8.18;5.78;;;;;;;24.23;93.54;100222.75;6220996;28;20412;-74
2023/08/20 04:46:16;;;;;;;8.93;5.90;;;;;;;24.19;93.92;100226.78;6261622;28;20050;-74
2023/08/20 04:49:17;;;;;;;8.63;5.68;;;;;;;24.12;94.74;100232.03;6254073;28;20103;-74
2023/08/20 04:52:20;;;;;;;11.27;5.50;;;;;;;24.26;94.87;100232.28;6197488;28;20058;-74
2023/08/20 04:55:20;;;;;;;7.05;5.53;;;;;;;24.27;94.28;100233.91;6207048;28;20291;-74
2023/08/20 04:58:21;;;;;;;7.50;5.30;;;;;;;24.39;92.64;100235.16;6202065;28;20174;-74
2023/08/20 05:01:22;;;;;;;5.73;4.93;;;;;;;24.48;92.37;100235.91;6217500;28;20089;-74
2023/08/20 05:04:23;;;;;;;7.10;5.17;;;;;;;24.42;92.45;100236.63;6200919;28;20054;-74
2023/08/20 05:07:23;;;;;;;14.23;5.30;;;;;;;24.58;91.05;100249.03;6195008;28;20104;-74
2023/08/20 05:10:29;;;;;;;8.83;5.30;;;;;;;24.56;91.87;100243.88;6202566;28;20057;-75
2023/08/20 05:13:29;;;;;;;8.43;5.30;;;;;;;24.55;91.01;100247.56;6203828;28;20046;-74
2023/08/20 05:16:30;;;;;;;7.07;5.20;;;;;;;24.80;90.62;100240.16;6211751;28;20056;-74
2023/08/20 05:19:33;;;;;;;6.25;5.10;;;;;;;24.89;89.60;100240.88;6209154;28;20055;-74
2023/08/20 05:22:34;;;;;;;6.05;4.97;;;;;;;24.96;89.07;100241.84;6299539;28;20044;-74
2023/08/20 05:25:35;;;;;;;6.77;4.93;;;;;;;25.07;88.49;100248.56;6220613;28;20414;-74
2023/08/20 05:28:38;;;;;;;6.67;4.97;;;;;;;25.21;87.03;100242.41;6214357;28;20054;-74
2023/08/20 05:31:38;;;;;;;8.13;5.40;;;;;;;25.37;87.07;100246.75;6217438;28;20424;-75
2023/08/20 05:34:39;;;;;;;6.30;5.00;;;;;;;25.26;86.81;100248.03;6208796;28;20058;-74
2023/08/20 05:37:40;;;;;;;6.60;4.93;;;;;;;25.40;87.26;100250.88;6211358;28;20179;-74
2023/08/20 05:40:43;;;;;;;7.57;4.77;;;;;;;25.41;86.45;100256.03;6205885;28;20120;-74
2023/08/20 05:43:44;;;;;;;6.70;4.90;;;;;;;25.50;85.45;100249.56;6219168;28;20397;-74
2023/08/20 05:46:45;;;;;;;6.10;4.90;;;;;;;25.64;85.55;100253.25;6214027;28;20054;-74
2023/08/20 05:49:46;;;;;;;6.97;4.63;;;;;;;25.77;84.33;100262.44;6215456;28;20050;-75
2023/08/20 05:52:48;;;;;;;7.30;4.70;;;;;;;26.01;82.86;100269.31;6202262;28;20398;-74
2023/08/20 05:55:49;;;;;;;8.88;4.80;;;;;;;26.12;82.60;100268.81;6299140;27;20072;-74
2023/08/20 05:58:49;;;;;;;6.88;5.20;;;;;;;26.15;80.67;100268.44;6220746;28;20045;-75
2023/08/20 06:01:52;;;;;;;6.70;4.83;;;;;;;25.99;80.38;100274.03;6216103;28;20061;-75
2023/08/20 06:04:53;;;;;;;7.43;5.13;;;;;;;26.29;80.10;100272.06;6217596;28;20042;-75
2023/08/20 06:07:54;;;;;;;5.53;4.70;;;;;;;26.52;79.59;100275.38;6216855;28;20421;-75
2023/08/20 06:10:57;;;;;;;9.30;4.90;;;;;;;26.44;78.90;100278.19;6198087;28;20494;-74
2023/08/20 06:13:58;;;;;;;4.25;3.85;;;;;;;26.49;76.60;100275.75;6222502;28;20322;-75
2023/08/20 06:16:59;;;;;;;7.03;4.90;;;;;;;26.62;76.43;100284.94;6203321;28;20058;-75
2023/08/20 06:20:00;;;;;;;5.43;4.47;;;;;;;26.89;76.05;100284.16;6201159;28;20378;-75
2023/08/20 06:23:00;;;;;;;8.97;4.63;;;;;;;26.86;77.27;100297.91;6205105;28;20555;-74
2023/08/20 06:26:01;;;;;;;5.40;4.30;;;;;;;27.09;77.60;100300.31;6232983;28;20045;-75
2023/08/20 06:29:02;;;;;;;4.83;4.27;;;;;;;27.30;76.00;100302.16;6234494;28;20295;-74
2023/08/20 06:32:03;;;;;;;5.43;4.32;;;;;;;27.14;76.96;100303.25;6219120;28;20136;-75
2023/08/20 06:35:04;;;;;;;6.50;4.32;;;;;;;27.31;74.96;100308.34;6220457;28;20413;-75
2023/08/20 06:38:05;;;;;;;6.50;4.18;;;;;;;27.23;74.80;100301.28;6254913;28;20135;-74
2023/08/20 06:41:06;;;;;;;5.50;4.22;;;;;;;27.59;74.61;100302.09;6219887;28;20118;-71
2023/08/20 06:44:07;;;;;;;12.52;4.43;;;;;;;27.60;72.74;100309.13;6244590;28;20051;-71
2023/08/20 06:47:08;;;;;;;6.40;4.50;;;;;;;27.62;74.08;100307.88;6347641;28;20048;-72
2023/08/20 06:50:09;;;;;;;6.90;4.63;;;;;;;27.73;72.31;100307.28;6347505;28;20051;-71
2023/08/20 06:53:12;;;;;;;7.05;4.80;;;;;;;27.80;72.25;100314.53;6322173;28;20085;-71
2023/08/20 06:56:16;;;;;;;6.57;4.78;;;;;;;27.92;74.46;100315.66;6290235;28;20051;-71
2023/08/20 06:59:17;;;;;;;6.18;4.80;;;;;;;27.67;72.04;100320.69;6205333;28;20054;-72
2023/08/20 07:02:18;;;;;;;8.70;4.60;;;;;;;27.98;71.36;100322.88;6218220;28;20061;-71
2023/08/20 07:05:20;;;;;;;7.35;4.75;;;;;;;27.91;71.57;100314.00;6309651;28;20063;-71
2023/08/20 07:08:22;;;;;;;8.35;4.65;;;;;;;28.18;71.39;100316.78;6208638;28;20111;-71
2023/08/20 07:11:22;;;;;;;7.38;4.40;;;;;;;28.27;70.13;100313.72;6204059;28;20056;-72
2023/08/20 07:14:23;;;;;;;5.63;4.38;;;;;;;28.96;69.08;100321.63;6196187;28;20050;-72
2023/08/20 07:17:24;;;;;;;5.30;3.90;;;;;;;28.91;68.03;100324.91;6206727;28;20050;-72
2023/08/20 07:20:25;;;;;;;7.10;4.90;;;;;;;29.09;68.70;100330.47;6210270;28;20053;-72
2023/08/20 07:23:25;;;;;;;7.13;4.00;;;;;;;29.09;68.39;100335.03;6209081;28;20137;-71
2023/08/20 07:26:26;;;;;;;6.68;4.00;;;;;;;29.42;67.58;100331.47;6239028;28;20053;-72
2023/08/20 07:29:29;;;;;;;5.93;3.95;;;;;;;29.35;66.78;100328.00;6245973;28;20061;-72
2023/08/20 07:32:30;;;;;;;5.30;3.85;;;;;;;29.64;66.51;100332.06;6221316;28;20070;-72
2023/08/20 07:35:35;;;;;;;6.53;4.63;;;;;;;29.96;66.39;100332.16;6262400;28;20475;-72
2023/08/20 07:38:40;;;;;;;5.95;4.22;;;;;;;29.93;65.83;100336.91;6210519;28;20052;-72
2023/08/20 07:41:44;;;;;;;12.18;4.00;;;;;;;30.17;65.77;100326.47;6212436;28;20053;-72
2023/08/20 07:44:47;;;;;;;5.25;3.92;;;;;;;30.28;64.29;100336.53;6219112;28;20054;-72
2023/08/20 07:47:47;;;;;;;5.68;3.97;;;;;;;30.46;63.35;100329.63;6197995;28;20046;-72
2023/08/20 07:50:48;;;;;;;4.65;4.15;;;;;;;30.42;62.38;100333.78;6220115;28;20050;-72
2023/08/20 07:53:49;;;;;;;5.60;3.65;;;;;;;30.48;61.63;100325.66;6223343;28;20106;-72
2023/08/20 07:56:50;;;;;;;5.40;3.80;;;;;;;30.17;63.11;100326.47;6201653;28;20043;-72
2023/08/20 07:59:51;;;;;;;7.13;3.88;;;;;;;30.20;61.32;100327.88;6191755;28;20211;-74
2023/08/20 08:02:52;;;;;;;6.47;3.55;;;;;;;30.61;61.80;100324.72;6248216;28;20050;-72
2023/08/20 08:05:55;;;;;;;5.93;4.03;;;;;;;30.84;61.97;100331.38;6211414;28;20046;-72
2023/08/20 08:08:55;;;;;;;8.13;4.00;;;;;;;31.13;61.39;100332.59;6193208;28;20042;-72
2023/08/20 08:11:57;;;;;;;5.10;3.67;;;;;;;31.31;60.37;100329.09;6316159;28;20058;-75
2023/08/20 08:14:58;;;;;;;5.78;3.72;;;;;;;31.14;60.12;100326.19;6345414;28;20048;-75
2023/08/20 08:17:59;;;;;;;5.05;3.70;;;;;;;31.41;60.02;100331.28;6343980;28;20052;-75
2023/08/20 08:20:59;;;;;;;4.93;3.67;;;;;;;31.44;58.45;100336.25;6278484;28;20049;-75
2023/08/20 08:24:00;;;;;;;7.65;3.63;;;;;;;31.50;58.83;100338.06;6216980;28;20075;-75
2023/08/20 08:27:01;;;;;;;4.68;3.60;;;;;;;31.66;57.16;100340.16;6219985;28;20050;-75
2023/08/20 08:30:02;;;;;;;5.63;3.80;;;;;;;32.03;57.90;100340.13;6330776;28;20500;-75
2023/08/20 08:33:04;;;;;;;3.88;3.42;;;;;;;32.24;57.42;100336.09;6222873;28;20046;-75
2023/08/20 08:36:04;;;;;;;6.55;4.10;;;;;;;32.36;58.43;100338.03;6228418;28;20498;-72
2023/08/20 08:39:06;;;;;;;5.25;3.60;;;;;;;32.56;57.13;100338.56;6214496;28;20041;-72
2023/08/20 08:42:10;;;;;;;6.90;3.88;;;;;;;32.31;58.46;100341.41;6214528;28;20110;-75
2023/08/20 08:45:13;;;;;;;5.90;3.58;;;;;;;31.75;57.12;100329.88;6220161;28;20056;-75
2023/08/20 08:48:16;;;;;;;5.80;3.85;;;;;;;32.16;56.50;100328.31;6222671;28;20057;-75
2023/08/20 08:51:18;;;;;;;8.05;3.72;;;;;;;32.21;55.73;100333.88;6224380;28;20050;-75
2023/08/20 08:54:22;;;;;;;4.60;3.50;;;;;;;32.69;54.48;100329.44;6221277;28;20128;-75
2023/08/20 08:57:24;;;;;;;6.18;3.63;;;;;;;32.44;54.29;100341.22;6222393;28;20058;-71
2023/08/20 09:00:24;;;;;;;10.60;3.78;;;;;;;32.40;53.65;100336.50;6284929;28;20073;-71
2023/08/20 09:03:25;;;;;;;5.82;3.35;;;;;;;32.64;52.96;100340.94;6244540;28;20050;-71
2023/08/20 09:06:26;;;;;;;4.97;3.92;;;;;;;32.76;53.56;100335.56;6199376;28;20075;-71
2023/08/20 09:09:29;;;;;;;5.72;3.47;;;;;;;33.03;53.42;100344.03;6200952;28;20064;-71
2023/08/20 09:12:34;;;;;;;5.07;3.45;;;;;;;33.16;51.92;100353.00;6209412;28;20054;-71
2023/08/20 09:15:35;;;;;;;3.80;3.38;;;;;;;33.40;52.90;100349.22;6223857;28;20406;-71
2023/08/20 09:18:40;;;;;;;;;;;;;;;33.61;50.66;100357.78;6253555;28;20042;-71
2023/08/20 09:21:46;;;;;;;6.53;3.50;;;;;;;33.13;50.90;100343.44;6205103;28;19921;-71
2023/08/20 09:24:56;;;;;;;5.90;3.45;;;;;;;33.75;50.03;100356.47;6212214;28;20050;-71
2023/08/20 09:27:56;;;;;;;5.13;3.70;;;;;;;33.92;50.28;100353.81;6220480;28;20512;-72
2023/08/20 09:30:58;;;;;;;;;;;;;;;34.02;50.84;100356.72;6211878;28;20054;-71
2023/08/20 09:33:58;;;;;;;;;;;;;;;33.65;49.69;100356.25;6207288;28;20370;-75
2023/08/20 09:37:01;;;;;;;7.68;3.35;;;;;;;34.05;50.08;100358.94;6196586;28;19926;-74
2023/08/20 09:40:02;;;;;;;6.50;3.60;;;;;;;33.78;48.60;100345.16;6224844;28;20205;-72
2023/08/20 09:43:07;;;;;;;4.90;3.42;;;;;;;34.14;48.54;100350.44;6218170;28;20563;-71
2023/08/20 09:46:12;;;;;;;5.20;3.58;;;;;;;34.34;47.64;100344.59;6225737;28;20036;-71
2023/08/20 09:49:17;;;;;;;4.65;3.60;;;;;;;34.61;46.00;100342.88;6237417;28;20137;-71
2023/08/20 09:52:47;;;;;;;5.35;3.67;;;;;;;34.70;47.52;100340.63;6217615;28;20075;-71
2023/08/20 09:55:51;;;;;;;3.42;3.10;;;;;;;34.41;47.59;100354.22;6226745;28;20484;-72
2023/08/20 09:58:54;;;;;;;3.72;3.30;;;;;;;34.05;49.45;100344.56;6346985;28;20079;-71
2023/08/20 10:01:55;;;;;;;7.50;3.50;;;;;;;33.95;48.00;100341.69;6300629;28;20046;-75
2023/08/20 10:05:01;;;;;;;4.53;3.38;;;;;;;34.55;48.62;100343.84;6206726;28;20058;-75
2023/08/20 10:08:02;;;;;;;4.18;3.28;;;;;;;34.79;49.03;100336.44;6207952;28;20042;-75
2023/08/20 10:11:06;;;;;;;4.38;3.70;;;;;;;34.47;48.02;100339.69;6196510;28;20054;-72
2023/08/20 10:14:09;;;;;;;4.15;3.25;;;;;;;35.01;45.33;100328.38;6212534;28;20084;-72
2023/08/20 10:17:16;;;;;;;4.20;3.35;;;;;;;35.46;47.61;100326.53;6327000;28;20075;-72
2023/08/20 10:20:18;;;;;;;8.25;3.35;;;;;;;35.33;46.44;100332.34;6219762;28;20114;-72
2023/08/20 10:23:25;;;;;;;3.72;3.00;;;;;;;35.31;44.18;100330.72;6213105;28;20490;-73
2023/08/20 10:26:28;;;;;;;4.25;3.40;;;;;;;35.19;46.23;100326.47;6217904;28;20054;-72
2023/08/20 10:29:37;;;;;;;5.22;3.40;;;;;;;35.02;45.91;100327.28;6200332;28;20112;-73
2023/08/20 10:32:50;;;;;;;4.10;3.20;;;;;;;35.33;44.15;100318.78;6208208;28;20451;-72
2023/08/20 10:35:53;;;;;;;9.05;3.30;;;;;;;35.82;43.14;100330.53;6306223;28;20414;-73
2023/08/20 10:38:56;;;;;;;4.30;3.80;;;;;;;35.94;43.12;100324.16;6213069;28;20403;-72
2023/08/20 10:42:15;;;;;;;5.95;3.10;;;;;;;35.99;41.66;100329.63;6193118;28;20042;-73
2023/08/20 10:45:15;;;;;;;3.50;2.95;;;;;;;36.15;43.64;100317.88;6219260;28;20510;-72
2023/08/20 10:48:16;;;;;;;3.80;3.40;;;;;;;36.22;41.35;100315.78;6209894;28;20087;-72
2023/08/20 10:51:40;;;;;;;8.40;3.20;;;;;;;36.32;41.11;100320.47;6272552;28;20049;-73
2023/08/20 10:54:41;;;;;;;7.97;3.50;;;;;;;36.36;43.64;100313.44;6295507;28;20524;-72
2023/08/20 10:57:44;;;;;;;5.35;3.30;;;;;;;36.12;42.34;100312.94;6203494;28;20047;-73
2023/08/20 11:01:15;;;;;;;4.32;3.20;;;;;;;36.34;42.50;100312.06;6192608;28;20518;-72
2023/08/20 11:04:18;;;;;;;4.15;3.45;;;;;;;36.47;44.65;100307.03;6257137;28;20406;-72
2023/08/20 11:07:21;;;;;;;3.50;3.17;;;;;;;36.91;42.86;100301.38;6193838;28;20383;-72
2023/08/20 11:10:22;;;;;;;3.55;3.25;;;;;;;37.12;42.45;100298.81;6221287;28;20500;-75
2023/08/20 11:13:25;;;;;;;3.25;2.92;;;;;;;37.00;40.08;100303.59;6249370;28;20050;-74
2023/08/20 11:16:26;;;;;;;4.68;3.10;;;;;;;36.84;40.33;100294.53;6224857;28;20056;-72
2023/08/20 11:19:28;;;;;;;8.90;3.35;;;;;;;36.94;40.91;100294.59;6274314;28;20044;-73
2023/08/20 11:22:29;;;;;;;3.33;3.03;;;;;;;37.10;42.49;100300.94;6193622;28;20585;-72
2023/08/20 11:25:29;;;;;;;6.70;3.15;;;;;;;36.94;42.56;100291.06;6192412;28;20058;-74
2023/08/20 11:28:32;;;;;;;5.85;3.78;;;;;;;37.25;44.41;100290.19;6223028;28;20458;-74
2023/08/20 11:31:33;;;;;;;4.68;3.20;;;;;;;37.22;43.56;100285.25;6329554;28;20106;-75
2023/08/20 11:34:40;;;;;;;5.22;3.47;;;;;;;36.80;41.14;100290.69;6229224;28;20106;-74
2023/08/20 11:37:41;;;;;;;5.13;3.45;;;;;;;36.67;42.06;100289.25;6207368;28;20042;-73
2023/08/20 11:40:42;;;;;;;9.45;3.13;;;;;;;36.55;40.11;100284.00;6213263;28;20411;-72
2023/08/20 11:43:45;;;;;;;4.93;3.28;;;;;;;36.58;40.29;100275.31;6242499;28;20042;-73
2023/08/20 11:46:48;;;;;;;5.80;3.00;;;;;;;36.88;40.57;100273.88;6206877;28;20085;-72
2023/08/20 11:50:04;;;;;;;5.50;3.28;;;;;;;37.10;41.74;100273.75;6237510;28;20486;-73
2023/08/20 11:53:05;;;;;;;3.25;2.75;;;;;;;37.26;39.02;100270.03;6212472;28;20065;-72
2023/08/20 11:56:06;;;;;;;4.95;3.30;;;;;;;37.20;40.92;100267.56;6209966;28;20055;-72
2023/08/20 11:59:11;;;;;;;3.95;3.25;;;;;;;36.56;41.60;100263.88;6250561;28;20428;-73
2023/08/20 12:02:12;;;;;;;4.50;3.35;;;;;;;36.76;41.36;100262.44;6215986;28;20050;-73
2023/08/20 12:05:14;;;;;;;5.40;3.53;;;;;;;37.32;42.71;100261.91;6217622;28;20076;-72
2023/08/20 12:08:19;;;;;;;3.78;3.35;;;;;;;37.30;41.38;100271.16;6233077;28;20044;-75
2023/08/20 12:11:27;;;;;;;4.80;3.30;;;;;;;36.76;40.80;100265.97;6202850;28;20490;-75
2023/08/20 12:14:30;;;;;;;3.63;2.97;;;;;;;37.20;40.60;100260.22;6307379;27;20051;-75
2023/08/20 12:17:31;;;;;;;6.20;3.22;;;;;;;37.03;38.55;100260.41;6214256;28;20152;-74
2023/08/20 12:20:33;;;;;;;6.80;3.63;;;;;;;37.16;42.79;100259.13;6234649;28;20106;-75
2023/08/20 12:23:34;;;;;;;4.25;3.30;;;;;;;36.60;39.00;100245.97;6221006;28;20054;-74
2023/08/20 12:26:36;;;;;;;4.45;3.08;;;;;;;36.92;40.11;100250.53;6218425;28;20070;-75
2023/08/20 12:29:37;;;;;;;4.25;3.28;;;;;;;37.06;41.13;100248.97;6212347;28;20057;-75
2023/08/20 12:32:37;;;;;;;3.72;3.30;;;;;;;37.13;42.64;100248.78;6206708;28;20055;-74
2023/08/20 12:35:38;;;;;;;6.65;3.40;;;;;;;36.67;39.09;100253.94;6197054;28;20108;-75
2023/08/20 12:38:41;;;;;;;4.43;3.45;;;;;;;36.81;40.66;100243.41;6338347;28;20130;-74
2023/08/20 12:41:42;;;;;;;4.55;3.33;;;;;;;36.65;39.87;100246.06;6245102;27;20046;-75
2023/08/20 12:44:43;;;;;;;5.30;3.33;;;;;;;36.35;41.01;100243.91;6206448;28;20053;-74
2023/08/20 12:47:44;;;;;;;3.95;3.28;;;;;;;36.51;38.91;100242.13;6218288;28;20054;-75
2023/08/20 12:50:45;;;;;;;4.60;3.10;;;;;;;36.89;41.84;100241.00;6213106;28;20116;-75
2023/08/20 12:53:46;;;;;;;6.38;3.40;;;;;;;36.78;39.74;100246.66;6204114;28;20053;-74
2023/08/20 12:56:46;;;;;;;5.97;3.15;;;;;;;37.06;40.07;100240.00;6200417;28;20046;-75
2023/08/20 12:59:50;;;;;;;5.60;3.30;;;;;;;37.00;42.19;100231.00;6209935;28;20625;-75
2023/08/20 13:02:51;;;;;;;5.95;3.45;;;;;;;37.16;40.92;100241.97;6216070;28;20053;-75
2023/08/20 13:05:52;;;;;;;3.90;3.25;;;;;;;37.15;38.50;100229.47;6217615;28;20072;-74
2023/08/20 13:08:53;;;;;;;5.65;3.47;;;;;;;37.06;39.84;100231.84;6214988;28;20055;-74
2023/08/20 13:12:03;;;;;;;6.53;3.90;;;;;;;36.94;40.32;100228.53;6198586;28;20050;-74
2023/08/20 13:15:05;;;;;;;3.60;3.10;;;;;;;36.86;38.99;100224.41;6297604;27;20055;-74
2023/08/20 13:18:07;;;;;;;5.00;2.97;;;;;;;37.14;40.70;100223.22;6212360;28;20038;-74
2023/08/20 13:21:09;;;;;;;6.40;3.00;;;;;;;37.06;35.98;100215.53;6227285;28;20050;-75
2023/08/20 13:24:09;;;;;;;5.13;3.25;;;;;;;36.83;36.81;100219.50;6210429;28;20081;-75
2023/08/20 13:27:10;;;;;;;5.07;3.38;;;;;;;36.80;39.59;100217.31;6221450;28;20050;-75
2023/08/20 13:30:11;;;;;;;3.42;3.05;;;;;;;36.74;38.56;100218.38;6224231;28;20062;-74
2023/08/20 13:33:13;;;;;;;4.07;3.20;;;;;;;36.59;38.33;100219.06;6210711;28;20405;-74
2023/08/20 13:36:14;;;;;;;4.20;2.97;;;;;;;35.95;38.61;100218.00;6209404;28;20057;-75
2023/08/20 13:39:18;;;;;;;3.90;3.10;;;;;;;36.33;39.79;100215.38;6209765;28;20057;-75
2023/08/20 13:42:18;;;;;;;6.47;3.10;;;;;;;36.22;39.32;100214.44;6215042;28;20058;-74
2023/08/20 13:45:21;;;;;;;4.97;3.65;;;;;;;36.58;42.41;100212.81;6219385;28;20050;-75
2023/08/20 13:48:22;;;;;;;4.72;3.13;;;;;;;36.65;37.99;100209.88;6198207;28;20634;-74
2023/08/20 13:51:23;;;;;;;4.03;2.67;;;;;;;36.42;38.20;100202.91;6204461;28;20053;-74
2023/08/20 13:54:24;;;;;;;7.60;3.00;;;;;;;36.37;38.86;100209.16;6203495;28;20057;-74
2023/08/20 13:57:24;;;;;;;3.58;2.63;;;;;;;36.07;38.40;100204.25;6208575;28;20050;-75
2023/08/20 14:00:27;;;;;;;4.70;3.08;;;;;;;36.16;39.20;100202.75;6207315;28;20058;-74
2023/08/20 14:03:28;;;;;;;3.25;2.80;;;;;;;36.10;37.81;100201.84;6263933;28;20046;-74
2023/08/20 14:06:29;;;;;;;7.15;3.28;;;;;;;35.85;39.42;100207.91;6205801;28;20080;-74
2023/08/20 14:09:30;;;;;;;5.25;3.25;;;;;;;36.00;38.74;100200.97;6200564;28;20054;-74